sensor_id;sensor_type;location;lat;lon;timestamp;temperature;humidity
40454;DHT22;26160;51.858;4.398;2023-12-22T00:01:23;10.70;1.00
40454;DHT22;26160;51.858;4.398;2023-12-22T00:03:49;10.70;1.00
40454;DHT22;26160;51.858;4.398;2023-12-22T00:06:16;10.60;1.00
40454;DHT22;26160;51.858;4.398;2023-12-22T00:08:42;10.60;1.00
40454;DHT22;26160;51.858;4.398;2023-12-22T00:11:08;10.60;1.00
40454;DHT22;26160;51.858;4.398;2023-12-22T00:13:34;10.60;1.00
40454;DHT22;26160;51.858;4.398;2023-12-22T00:16:00;10.60;1.00
40454;DHT22;26160;51.858;4.398;2023-12-22T00:18:27;10.50;1.00
40454;DHT22;26160;51.858;4.398;2023-12-22T00:20:53;10.50;1.00
40454;DHT22;26160;51.858;4.398;2023-12-22T00:23:19;10.60;1.00
40454;DHT22;26160;51.858;4.398;2023-12-22T00:25:45;10.50;1.00
40454;DHT22;26160;51.858;4.398;2023-12-22T00:28:11;10.50;1.00
40454;DHT22;26160;51.858;4.398;2023-12-22T00:30:37;10.60;1.00
40454;DHT22;26160;51.858;4.398;2023-12-22T00:33:07;10.60;1.00
40454;DHT22;26160;51.858;4.398;2023-12-22T00:35:33;10.60;1.00
40454;DHT22;26160;51.858;4.398;2023-12-22T00:38:01;10.60;1.00
40454;DHT22;26160;51.858;4.398;2023-12-22T00:40:27;10.60;1.00
40454;DHT22;26160;51.858;4.398;2023-12-22T00:42:53;10.60;1.00
40454;DHT22;26160;51.858;4.398;2023-12-22T00:45:20;10.60;1.00
40454;DHT22;26160;51.858;4.398;2023-12-22T00:47:46;10.60;1.00
40454;DHT22;26160;51.858;4.398;2023-12-22T00:50:12;10.50;1.00
40454;DHT22;26160;51.858;4.398;2023-12-22T00:52:38;10.40;1.00
40454;DHT22;26160;51.858;4.398;2023-12-22T00:55:05;10.50;1.00
40454;DHT22;26160;51.858;4.398;2023-12-22T00:57:31;10.50;1.00
40454;DHT22;26160;51.858;4.398;2023-12-22T00:59:57;10.50;1.00
40454;DHT22;26160;51.858;4.398;2023-12-22T01:02:23;10.40;1.00
40454;DHT22;26160;51.858;4.398;2023-12-22T01:04:49;10.50;1.00
40454;DHT22;26160;51.858;4.398;2023-12-22T01:07:15;10.50;1.00
40454;DHT22;26160;51.858;4.398;2023-12-22T01:09:42;10.50;1.00
40454;DHT22;26160;51.858;4.398;2023-12-22T01:12:08;10.50;1.00
40454;DHT22;26160;51.858;4.398;2023-12-22T01:14:36;10.50;1.00
40454;DHT22;26160;51.858;4.398;2023-12-22T01:17:02;10.50;1.00
40454;DHT22;26160;51.858;4.398;2023-12-22T01:19:28;10.40;1.00
40454;DHT22;26160;51.858;4.398;2023-12-22T01:21:55;10.50;1.00
40454;DHT22;26160;51.858;4.398;2023-12-22T01:24:21;10.50;1.00
40454;DHT22;26160;51.858;4.398;2023-12-22T01:26:47;10.40;1.00
40454;DHT22;26160;51.858;4.398;2023-12-22T01:29:16;10.40;1.00
40454;DHT22;26160;51.858;4.398;2023-12-22T01:31:42;10.40;1.00
40454;DHT22;26160;51.858;4.398;2023-12-22T01:34:08;10.40;1.00
40454;DHT22;26160;51.858;4.398;2023-12-22T01:36:34;10.30;1.00
40454;DHT22;26160;51.858;4.398;2023-12-22T01:39:01;10.20;1.00
40454;DHT22;26160;51.858;4.398;2023-12-22T01:41:27;10.20;1.00
40454;DHT22;26160;51.858;4.398;2023-12-22T01:43:53;10.30;1.00
40454;DHT22;26160;51.858;4.398;2023-12-22T01:46:19;10.30;1.00
40454;DHT22;26160;51.858;4.398;2023-12-22T01:48:46;10.40;1.00
40454;DHT22;26160;51.858;4.398;2023-12-22T01:51:12;10.20;9.50
40454;DHT22;26160;51.858;4.398;2023-12-22T01:53:39;9.50;70.70
40454;DHT22;26160;51.858;4.398;2023-12-22T01:56:05;9.10;99.00
40454;DHT22;26160;51.858;4.398;2023-12-22T01:58:33;8.90;99.90
40454;DHT22;26160;51.858;4.398;2023-12-22T02:03:36;9.10;99.90
40454;DHT22;26160;51.858;4.398;2023-12-22T02:06:04;9.30;99.90
40454;DHT22;26160;51.858;4.398;2023-12-22T02:08:32;9.50;99.90
40454;DHT22;26160;51.858;4.398;2023-12-22T02:10:59;9.40;97.00
40454;DHT22;26160;51.858;4.398;2023-12-22T02:13:25;9.60;91.20
40454;DHT22;26160;51.858;4.398;2023-12-22T02:15:59;9.60;60.00
40454;DHT22;26160;51.858;4.398;2023-12-22T02:18:31;9.80;31.70
40454;DHT22;26160;51.858;4.398;2023-12-22T02:20:58;9.90;16.70
40454;DHT22;26160;51.858;4.398;2023-12-22T02:23:24;9.90;17.40
40454;DHT22;26160;51.858;4.398;2023-12-22T02:25:57;9.90;11.90
40454;DHT22;26160;51.858;4.398;2023-12-22T02:28:29;10.10;9.30
40454;DHT22;26160;51.858;4.398;2023-12-22T02:31:08;10.10;10.30
40454;DHT22;26160;51.858;4.398;2023-12-22T02:33:35;10.20;9.90
40454;DHT22;26160;51.858;4.398;2023-12-22T02:36:03;10.20;15.90
40454;DHT22;26160;51.858;4.398;2023-12-22T02:38:35;10.20;24.90
40454;DHT22;26160;51.858;4.398;2023-12-22T02:41:02;10.20;22.80
40454;DHT22;26160;51.858;4.398;2023-12-22T02:43:28;10.30;14.10
40454;DHT22;26160;51.858;4.398;2023-12-22T02:45:55;10.30;12.40
40454;DHT22;26160;51.858;4.398;2023-12-22T02:48:21;10.40;4.40
40454;DHT22;26160;51.858;4.398;2023-12-22T02:50:47;10.30;8.50
40454;DHT22;26160;51.858;4.398;2023-12-22T02:53:13;10.30;1.00
40454;DHT22;26160;51.858;4.398;2023-12-22T02:55:39;10.40;1.00
40454;DHT22;26160;51.858;4.398;2023-12-22T02:58:05;10.40;1.00
40454;DHT22;26160;51.858;4.398;2023-12-22T03:00:31;10.40;1.00
40454;DHT22;26160;51.858;4.398;2023-12-22T03:02:57;10.40;1.00
40454;DHT22;26160;51.858;4.398;2023-12-22T03:05:23;10.50;1.00
40454;DHT22;26160;51.858;4.398;2023-12-22T03:07:50;10.50;1.00
40454;DHT22;26160;51.858;4.398;2023-12-22T03:10:16;10.50;1.00
40454;DHT22;26160;51.858;4.398;2023-12-22T03:12:42;10.50;1.00
40454;DHT22;26160;51.858;4.398;2023-12-22T03:15:08;10.50;1.00
40454;DHT22;26160;51.858;4.398;2023-12-22T03:17:35;10.50;1.00
40454;DHT22;26160;51.858;4.398;2023-12-22T03:20:01;10.50;1.00
40454;DHT22;26160;51.858;4.398;2023-12-22T03:22:27;10.50;1.00
40454;DHT22;26160;51.858;4.398;2023-12-22T03:24:53;10.50;1.00
40454;DHT22;26160;51.858;4.398;2023-12-22T03:27:19;10.50;1.00
40454;DHT22;26160;51.858;4.398;2023-12-22T03:29:46;10.50;1.00
40454;DHT22;26160;51.858;4.398;2023-12-22T03:32:12;10.50;1.00
40454;DHT22;26160;51.858;4.398;2023-12-22T03:34:38;10.50;1.00
40454;DHT22;26160;51.858;4.398;2023-12-22T03:37:04;10.50;1.00
40454;DHT22;26160;51.858;4.398;2023-12-22T03:39:30;10.50;1.00
40454;DHT22;26160;51.858;4.398;2023-12-22T03:41:59;10.40;1.00
40454;DHT22;26160;51.858;4.398;2023-12-22T03:44:25;10.50;1.00
40454;DHT22;26160;51.858;4.398;2023-12-22T03:46:51;10.50;1.00
40454;DHT22;26160;51.858;4.398;2023-12-22T03:49:17;10.50;1.00
40454;DHT22;26160;51.858;4.398;2023-12-22T03:51:45;10.50;1.00
40454;DHT22;26160;51.858;4.398;2023-12-22T03:54:11;10.60;1.00
40454;DHT22;26160;51.858;4.398;2023-12-22T03:56:37;10.60;8.60
40454;DHT22;26160;51.858;4.398;2023-12-22T03:59:03;10.60;16.20
40454;DHT22;26160;51.858;4.398;2023-12-22T04:01:29;10.60;22.80
40454;DHT22;26160;51.858;4.398;2023-12-22T04:03:55;10.50;28.10
40454;DHT22;26160;51.858;4.398;2023-12-22T04:06:22;10.50;33.30
40454;DHT22;26160;51.858;4.398;2023-12-22T04:08:48;10.50;34.80
40454;DHT22;26160;51.858;4.398;2023-12-22T04:11:14;10.60;26.40
40454;DHT22;26160;51.858;4.398;2023-12-22T04:13:40;10.60;28.20
40454;DHT22;26160;51.858;4.398;2023-12-22T04:16:06;10.50;17.80
40454;DHT22;26160;51.858;4.398;2023-12-22T04:18:32;10.60;14.80
40454;DHT22;26160;51.858;4.398;2023-12-22T04:20:58;10.60;21.30
40454;DHT22;26160;51.858;4.398;2023-12-22T04:23:24;10.60;27.50
40454;DHT22;26160;51.858;4.398;2023-12-22T04:25:50;10.50;29.20
40454;DHT22;26160;51.858;4.398;2023-12-22T04:28:17;10.50;38.90
40454;DHT22;26160;51.858;4.398;2023-12-22T04:30:43;10.40;47.20
40454;DHT22;26160;51.858;4.398;2023-12-22T04:33:09;10.50;52.20
40454;DHT22;26160;51.858;4.398;2023-12-22T04:35:35;10.50;64.10
40454;DHT22;26160;51.858;4.398;2023-12-22T04:38:01;10.50;86.10
40454;DHT22;26160;51.858;4.398;2023-12-22T04:40:27;10.50;93.00
40454;DHT22;26160;51.858;4.398;2023-12-22T04:42:54;10.60;96.00
40454;DHT22;26160;51.858;4.398;2023-12-22T04:45:20;10.60;98.50
40454;DHT22;26160;51.858;4.398;2023-12-22T04:47:47;10.60;98.60
40454;DHT22;26160;51.858;4.398;2023-12-22T04:50:13;10.60;99.70
40454;DHT22;26160;51.858;4.398;2023-12-22T04:52:39;10.60;99.90
40454;DHT22;26160;51.858;4.398;2023-12-22T04:55:06;10.60;99.90
40454;DHT22;26160;51.858;4.398;2023-12-22T04:57:32;10.60;99.90
40454;DHT22;26160;51.858;4.398;2023-12-22T04:59:58;10.60;99.90
40454;DHT22;26160;51.858;4.398;2023-12-22T05:02:24;10.60;99.90
40454;DHT22;26160;51.858;4.398;2023-12-22T05:04:50;10.60;99.90
40454;DHT22;26160;51.858;4.398;2023-12-22T05:07:16;10.60;99.90
40454;DHT22;26160;51.858;4.398;2023-12-22T05:09:42;10.50;99.90
40454;DHT22;26160;51.858;4.398;2023-12-22T05:12:08;10.40;99.90
40454;DHT22;26160;51.858;4.398;2023-12-22T05:14:35;10.40;99.90
40454;DHT22;26160;51.858;4.398;2023-12-22T05:17:01;10.40;99.90
40454;DHT22;26160;51.858;4.398;2023-12-22T05:19:27;10.40;99.90
40454;DHT22;26160;51.858;4.398;2023-12-22T05:21:53;10.40;99.90
40454;DHT22;26160;51.858;4.398;2023-12-22T05:24:22;10.40;99.90
40454;DHT22;26160;51.858;4.398;2023-12-22T05:26:48;10.40;99.90
40454;DHT22;26160;51.858;4.398;2023-12-22T05:29:14;10.40;99.90
40454;DHT22;26160;51.858;4.398;2023-12-22T05:31:40;10.50;99.90
40454;DHT22;26160;51.858;4.398;2023-12-22T05:34:06;10.50;99.90
40454;DHT22;26160;51.858;4.398;2023-12-22T05:36:34;10.50;99.90
40454;DHT22;26160;51.858;4.398;2023-12-22T05:39:00;10.50;99.90
40454;DHT22;26160;51.858;4.398;2023-12-22T05:41:26;10.50;99.90
40454;DHT22;26160;51.858;4.398;2023-12-22T05:43:52;10.60;99.90
40454;DHT22;26160;51.858;4.398;2023-12-22T05:46:18;10.50;99.90
40454;DHT22;26160;51.858;4.398;2023-12-22T05:48:44;10.60;99.90
40454;DHT22;26160;51.858;4.398;2023-12-22T05:51:10;10.60;99.90
40454;DHT22;26160;51.858;4.398;2023-12-22T05:53:40;10.60;99.90
40454;DHT22;26160;51.858;4.398;2023-12-22T05:56:17;10.60;99.90
40454;DHT22;26160;51.858;4.398;2023-12-22T05:58:44;10.60;99.90
40454;DHT22;26160;51.858;4.398;2023-12-22T06:01:17;10.60;99.40
40454;DHT22;26160;51.858;4.398;2023-12-22T06:03:47;10.60;97.40
40454;DHT22;26160;51.858;4.398;2023-12-22T06:06:14;10.70;98.00
40454;DHT22;26160;51.858;4.398;2023-12-22T06:08:40;10.70;91.50
40454;DHT22;26160;51.858;4.398;2023-12-22T06:11:06;10.70;91.30
40454;DHT22;26160;51.858;4.398;2023-12-22T06:13:32;10.70;92.30
40454;DHT22;26160;51.858;4.398;2023-12-22T06:15:59;10.80;91.50
40454;DHT22;26160;51.858;4.398;2023-12-22T06:18:25;10.70;93.90
40454;DHT22;26160;51.858;4.398;2023-12-22T06:20:52;10.70;96.20
40454;DHT22;26160;51.858;4.398;2023-12-22T06:23:18;10.70;97.50
40454;DHT22;26160;51.858;4.398;2023-12-22T06:25:44;10.70;99.30
40454;DHT22;26160;51.858;4.398;2023-12-22T06:28:12;10.70;96.60
40454;DHT22;26160;51.858;4.398;2023-12-22T06:30:38;10.80;95.00
40454;DHT22;26160;51.858;4.398;2023-12-22T06:33:04;10.80;96.50
40454;DHT22;26160;51.858;4.398;2023-12-22T06:35:30;10.80;96.30
40454;DHT22;26160;51.858;4.398;2023-12-22T06:37:59;10.80;98.10
40454;DHT22;26160;51.858;4.398;2023-12-22T06:40:29;10.80;95.50
40454;DHT22;26160;51.858;4.398;2023-12-22T06:42:55;10.80;94.20
40454;DHT22;26160;51.858;4.398;2023-12-22T06:45:21;10.80;94.40
40454;DHT22;26160;51.858;4.398;2023-12-22T06:47:47;10.80;95.30
40454;DHT22;26160;51.858;4.398;2023-12-22T06:50:14;10.80;95.80
40454;DHT22;26160;51.858;4.398;2023-12-22T06:52:40;10.80;95.90
40454;DHT22;26160;51.858;4.398;2023-12-22T06:55:06;10.80;97.10
40454;DHT22;26160;51.858;4.398;2023-12-22T06:57:32;10.80;97.90
40454;DHT22;26160;51.858;4.398;2023-12-22T06:59:58;10.80;99.40
40454;DHT22;26160;51.858;4.398;2023-12-22T07:02:25;10.80;99.90
40454;DHT22;26160;51.858;4.398;2023-12-22T07:07:36;10.80;99.90
40454;DHT22;26160;51.858;4.398;2023-12-22T07:10:03;10.80;99.90
40454;DHT22;26160;51.858;4.398;2023-12-22T07:12:29;10.70;99.90
40454;DHT22;26160;51.858;4.398;2023-12-22T07:14:55;10.70;99.90
40454;DHT22;26160;51.858;4.398;2023-12-22T07:17:21;10.70;99.90
40454;DHT22;26160;51.858;4.398;2023-12-22T07:19:48;10.70;99.90
40454;DHT22;26160;51.858;4.398;2023-12-22T07:22:14;10.70;99.90
40454;DHT22;26160;51.858;4.398;2023-12-22T07:24:40;10.60;99.90
40454;DHT22;26160;51.858;4.398;2023-12-22T07:27:07;10.60;99.90
40454;DHT22;26160;51.858;4.398;2023-12-22T07:29:33;10.70;99.90
40454;DHT22;26160;51.858;4.398;2023-12-22T07:31:59;10.70;99.90
40454;DHT22;26160;51.858;4.398;2023-12-22T07:34:25;10.60;99.90
40454;DHT22;26160;51.858;4.398;2023-12-22T07:36:51;10.60;99.90
40454;DHT22;26160;51.858;4.398;2023-12-22T07:39:19;10.60;99.90
40454;DHT22;26160;51.858;4.398;2023-12-22T07:41:45;10.60;99.90
40454;DHT22;26160;51.858;4.398;2023-12-22T07:44:11;10.60;99.90
40454;DHT22;26160;51.858;4.398;2023-12-22T07:46:37;10.60;99.90
40454;DHT22;26160;51.858;4.398;2023-12-22T07:49:03;10.60;99.90
40454;DHT22;26160;51.858;4.398;2023-12-22T07:51:29;10.50;99.90
40454;DHT22;26160;51.858;4.398;2023-12-22T07:53:55;10.50;99.90
40454;DHT22;26160;51.858;4.398;2023-12-22T07:56:21;10.50;99.90
40454;DHT22;26160;51.858;4.398;2023-12-22T07:58:48;10.50;99.90
40454;DHT22;26160;51.858;4.398;2023-12-22T08:01:14;10.50;99.90
40454;DHT22;26160;51.858;4.398;2023-12-22T08:03:43;10.40;99.90
40454;DHT22;26160;51.858;4.398;2023-12-22T08:06:09;10.40;99.90
40454;DHT22;26160;51.858;4.398;2023-12-22T08:08:36;10.40;99.90
40454;DHT22;26160;51.858;4.398;2023-12-22T08:11:02;10.40;99.90
40454;DHT22;26160;51.858;4.398;2023-12-22T08:13:28;10.40;99.90
40454;DHT22;26160;51.858;4.398;2023-12-22T08:15:54;10.40;99.90
40454;DHT22;26160;51.858;4.398;2023-12-22T08:18:20;10.40;99.90
40454;DHT22;26160;51.858;4.398;2023-12-22T08:20:46;10.50;99.90
40454;DHT22;26160;51.858;4.398;2023-12-22T08:23:15;10.50;99.90
40454;DHT22;26160;51.858;4.398;2023-12-22T08:25:41;10.50;99.90
40454;DHT22;26160;51.858;4.398;2023-12-22T08:28:07;10.50;99.90
40454;DHT22;26160;51.858;4.398;2023-12-22T08:30:33;10.50;99.90
40454;DHT22;26160;51.858;4.398;2023-12-22T08:33:00;10.60;99.90
40454;DHT22;26160;51.858;4.398;2023-12-22T08:35:26;10.60;99.90
40454;DHT22;26160;51.858;4.398;2023-12-22T08:37:52;10.60;99.90
40454;DHT22;26160;51.858;4.398;2023-12-22T08:40:18;10.60;99.90
40454;DHT22;26160;51.858;4.398;2023-12-22T08:42:51;10.50;99.90
40454;DHT22;26160;51.858;4.398;2023-12-22T08:45:20;10.50;99.90
40454;DHT22;26160;51.858;4.398;2023-12-22T08:47:47;10.50;99.90
40454;DHT22;26160;51.858;4.398;2023-12-22T08:50:13;10.50;99.90
40454;DHT22;26160;51.858;4.398;2023-12-22T08:52:39;10.50;99.90
40454;DHT22;26160;51.858;4.398;2023-12-22T08:55:06;10.50;99.90
40454;DHT22;26160;51.858;4.398;2023-12-22T08:57:32;10.60;99.90
40454;DHT22;26160;51.858;4.398;2023-12-22T08:59:58;10.60;99.90
40454;DHT22;26160;51.858;4.398;2023-12-22T09:02:24;10.70;99.90
40454;DHT22;26160;51.858;4.398;2023-12-22T09:04:52;10.70;99.90
40454;DHT22;26160;51.858;4.398;2023-12-22T09:07:18;10.80;99.90
40454;DHT22;26160;51.858;4.398;2023-12-22T09:09:45;10.80;99.90
40454;DHT22;26160;51.858;4.398;2023-12-22T09:12:11;10.90;99.90
40454;DHT22;26160;51.858;4.398;2023-12-22T09:14:37;10.90;99.90
40454;DHT22;26160;51.858;4.398;2023-12-22T09:17:03;11.00;99.90
40454;DHT22;26160;51.858;4.398;2023-12-22T09:19:32;11.00;99.90
40454;DHT22;26160;51.858;4.398;2023-12-22T09:21:59;11.00;99.90
40454;DHT22;26160;51.858;4.398;2023-12-22T09:24:25;11.10;99.90
40454;DHT22;26160;51.858;4.398;2023-12-22T09:26:51;11.20;99.90
40454;DHT22;26160;51.858;4.398;2023-12-22T09:29:18;11.20;99.90
40454;DHT22;26160;51.858;4.398;2023-12-22T09:31:44;11.20;99.90
40454;DHT22;26160;51.858;4.398;2023-12-22T09:34:10;11.30;99.90
40454;DHT22;26160;51.858;4.398;2023-12-22T09:36:36;11.30;99.90
40454;DHT22;26160;51.858;4.398;2023-12-22T09:39:02;11.30;99.90
40454;DHT22;26160;51.858;4.398;2023-12-22T09:41:28;11.40;99.90
40454;DHT22;26160;51.858;4.398;2023-12-22T09:43:56;11.40;99.90
40454;DHT22;26160;51.858;4.398;2023-12-22T09:46:23;11.40;99.90
40454;DHT22;26160;51.858;4.398;2023-12-22T09:48:52;11.40;99.90
40454;DHT22;26160;51.858;4.398;2023-12-22T09:51:19;11.40;99.90
40454;DHT22;26160;51.858;4.398;2023-12-22T09:53:46;11.40;99.90
40454;DHT22;26160;51.858;4.398;2023-12-22T09:56:14;11.40;99.90
40454;DHT22;26160;51.858;4.398;2023-12-22T09:58:41;11.40;99.90
40454;DHT22;26160;51.858;4.398;2023-12-22T10:01:07;11.50;99.90
40454;DHT22;26160;51.858;4.398;2023-12-22T10:03:35;11.50;99.90
40454;DHT22;26160;51.858;4.398;2023-12-22T10:06:03;11.50;99.90
40454;DHT22;26160;51.858;4.398;2023-12-22T10:08:29;11.50;99.90
40454;DHT22;26160;51.858;4.398;2023-12-22T10:10:56;11.60;99.90
40454;DHT22;26160;51.858;4.398;2023-12-22T10:13:22;11.60;99.90
40454;DHT22;26160;51.858;4.398;2023-12-22T10:15:49;11.60;99.90
40454;DHT22;26160;51.858;4.398;2023-12-22T10:18:16;11.70;99.90
40454;DHT22;26160;51.858;4.398;2023-12-22T10:20:42;11.70;99.90
40454;DHT22;26160;51.858;4.398;2023-12-22T10:23:08;11.70;99.90
40454;DHT22;26160;51.858;4.398;2023-12-22T10:25:35;11.70;99.90
40454;DHT22;26160;51.858;4.398;2023-12-22T10:28:01;11.70;99.90
40454;DHT22;26160;51.858;4.398;2023-12-22T10:30:28;11.80;99.90
40454;DHT22;26160;51.858;4.398;2023-12-22T10:32:54;11.80;99.90
40454;DHT22;26160;51.858;4.398;2023-12-22T10:35:21;11.90;99.90
40454;DHT22;26160;51.858;4.398;2023-12-22T10:37:50;11.90;99.90
40454;DHT22;26160;51.858;4.398;2023-12-22T10:40:21;12.00;99.90
40454;DHT22;26160;51.858;4.398;2023-12-22T10:42:48;12.00;99.90
40454;DHT22;26160;51.858;4.398;2023-12-22T10:45:15;12.00;99.90
40454;DHT22;26160;51.858;4.398;2023-12-22T10:47:43;11.90;99.90
40454;DHT22;26160;51.858;4.398;2023-12-22T10:50:12;11.90;99.90
40454;DHT22;26160;51.858;4.398;2023-12-22T10:52:39;11.90;99.90
40454;DHT22;26160;51.858;4.398;2023-12-22T10:55:05;11.90;99.90
40454;DHT22;26160;51.858;4.398;2023-12-22T10:57:32;11.90;99.90
40454;DHT22;26160;51.858;4.398;2023-12-22T11:00:05;11.90;99.90
40454;DHT22;26160;51.858;4.398;2023-12-22T11:02:34;12.00;99.90
40454;DHT22;26160;51.858;4.398;2023-12-22T11:05:05;12.00;99.90
40454;DHT22;26160;51.858;4.398;2023-12-22T11:07:34;12.00;99.90
40454;DHT22;26160;51.858;4.398;2023-12-22T11:10:04;12.00;99.90
40454;DHT22;26160;51.858;4.398;2023-12-22T11:12:34;11.90;99.90
40454;DHT22;26160;51.858;4.398;2023-12-22T11:15:02;11.90;99.90
40454;DHT22;26160;51.858;4.398;2023-12-22T11:17:30;11.80;99.90
40454;DHT22;26160;51.858;4.398;2023-12-22T11:19:58;11.80;99.90
40454;DHT22;26160;51.858;4.398;2023-12-22T11:22:25;11.90;99.90
40454;DHT22;26160;51.858;4.398;2023-12-22T11:24:52;11.80;99.90
40454;DHT22;26160;51.858;4.398;2023-12-22T11:27:20;11.90;99.90
40454;DHT22;26160;51.858;4.398;2023-12-22T11:29:50;11.90;99.90
40454;DHT22;26160;51.858;4.398;2023-12-22T11:32:18;11.90;99.90
40454;DHT22;26160;51.858;4.398;2023-12-22T11:34:46;12.00;99.90
40454;DHT22;26160;51.858;4.398;2023-12-22T11:37:13;12.00;99.90
40454;DHT22;26160;51.858;4.398;2023-12-22T11:39:43;12.00;99.90
40454;DHT22;26160;51.858;4.398;2023-12-22T11:42:27;12.10;99.90
40454;DHT22;26160;51.858;4.398;2023-12-22T11:44:54;12.10;99.90
40454;DHT22;26160;51.858;4.398;2023-12-22T11:47:23;12.10;99.90
40454;DHT22;26160;51.858;4.398;2023-12-22T11:49:49;12.20;99.90
40454;DHT22;26160;51.858;4.398;2023-12-22T11:52:18;12.10;99.90
40454;DHT22;26160;51.858;4.398;2023-12-22T11:54:51;12.20;99.90
40454;DHT22;26160;51.858;4.398;2023-12-22T11:57:34;12.20;99.90
40454;DHT22;26160;51.858;4.398;2023-12-22T12:00:07;12.10;99.90
40454;DHT22;26160;51.858;4.398;2023-12-22T12:02:36;12.10;99.90
40454;DHT22;26160;51.858;4.398;2023-12-22T12:05:04;12.10;99.90
40454;DHT22;26160;51.858;4.398;2023-12-22T12:07:46;12.10;99.90
40454;DHT22;26160;51.858;4.398;2023-12-22T12:10:51;12.20;99.90
40454;DHT22;26160;51.858;4.398;2023-12-22T12:13:22;12.20;99.90
40454;DHT22;26160;51.858;4.398;2023-12-22T12:15:50;12.20;99.90
40454;DHT22;26160;51.858;4.398;2023-12-22T12:18:22;12.20;99.90
40454;DHT22;26160;51.858;4.398;2023-12-22T12:20:49;12.20;99.90
40454;DHT22;26160;51.858;4.398;2023-12-22T12:23:18;12.10;99.90
40454;DHT22;26160;51.858;4.398;2023-12-22T12:25:44;12.10;99.90
40454;DHT22;26160;51.858;4.398;2023-12-22T12:28:10;12.10;99.90
40454;DHT22;26160;51.858;4.398;2023-12-22T12:30:38;12.10;99.90
40454;DHT22;26160;51.858;4.398;2023-12-22T12:33:11;12.10;99.90
40454;DHT22;26160;51.858;4.398;2023-12-22T12:35:38;12.10;99.90
40454;DHT22;26160;51.858;4.398;2023-12-22T12:38:04;12.10;99.90
40454;DHT22;26160;51.858;4.398;2023-12-22T12:40:31;12.10;99.90
40454;DHT22;26160;51.858;4.398;2023-12-22T12:43:00;12.10;99.90
40454;DHT22;26160;51.858;4.398;2023-12-22T12:45:27;12.10;99.90
40454;DHT22;26160;51.858;4.398;2023-12-22T12:48:00;12.00;99.90
40454;DHT22;26160;51.858;4.398;2023-12-22T12:50:27;12.00;99.90
40454;DHT22;26160;51.858;4.398;2023-12-22T12:52:59;12.00;99.90
40454;DHT22;26160;51.858;4.398;2023-12-22T12:55:26;11.90;99.90
40454;DHT22;26160;51.858;4.398;2023-12-22T12:57:53;12.00;99.90
40454;DHT22;26160;51.858;4.398;2023-12-22T13:00:31;12.00;99.90
40454;DHT22;26160;51.858;4.398;2023-12-22T13:03:02;12.00;99.90
40454;DHT22;26160;51.858;4.398;2023-12-22T13:05:31;12.00;99.90
40454;DHT22;26160;51.858;4.398;2023-12-22T13:08:11;12.00;99.90
40454;DHT22;26160;51.858;4.398;2023-12-22T13:10:38;12.10;99.90
40454;DHT22;26160;51.858;4.398;2023-12-22T13:13:04;12.10;99.90
40454;DHT22;26160;51.858;4.398;2023-12-22T13:15:31;12.10;99.90
40454;DHT22;26160;51.858;4.398;2023-12-22T13:17:58;12.10;99.90
40454;DHT22;26160;51.858;4.398;2023-12-22T13:20:24;12.10;99.90
40454;DHT22;26160;51.858;4.398;2023-12-22T13:22:50;12.10;99.90
40454;DHT22;26160;51.858;4.398;2023-12-22T13:25:16;12.20;99.90
40454;DHT22;26160;51.858;4.398;2023-12-22T13:27:50;12.20;99.90
40454;DHT22;26160;51.858;4.398;2023-12-22T13:30:35;12.20;99.90
40454;DHT22;26160;51.858;4.398;2023-12-22T13:33:04;12.20;99.90
40454;DHT22;26160;51.858;4.398;2023-12-22T13:35:30;12.30;99.90
40454;DHT22;26160;51.858;4.398;2023-12-22T13:37:57;12.20;99.90
40454;DHT22;26160;51.858;4.398;2023-12-22T13:40:24;12.20;99.90
40454;DHT22;26160;51.858;4.398;2023-12-22T13:42:57;12.20;99.90
40454;DHT22;26160;51.858;4.398;2023-12-22T13:45:26;12.20;99.90
40454;DHT22;26160;51.858;4.398;2023-12-22T13:47:52;12.10;99.90
40454;DHT22;26160;51.858;4.398;2023-12-22T13:50:19;12.10;99.90
40454;DHT22;26160;51.858;4.398;2023-12-22T13:52:45;12.10;99.90
40454;DHT22;26160;51.858;4.398;2023-12-22T13:55:13;12.10;99.90
40454;DHT22;26160;51.858;4.398;2023-12-22T13:57:39;12.10;99.90
40454;DHT22;26160;51.858;4.398;2023-12-22T14:00:28;12.10;99.90
40454;DHT22;26160;51.858;4.398;2023-12-22T14:02:55;12.10;99.90
40454;DHT22;26160;51.858;4.398;2023-12-22T14:05:21;12.10;99.90
40454;DHT22;26160;51.858;4.398;2023-12-22T14:07:48;12.10;99.90
40454;DHT22;26160;51.858;4.398;2023-12-22T14:10:14;12.10;99.90
40454;DHT22;26160;51.858;4.398;2023-12-22T14:12:41;12.10;99.90
40454;DHT22;26160;51.858;4.398;2023-12-22T14:15:08;12.10;99.90
40454;DHT22;26160;51.858;4.398;2023-12-22T14:17:34;12.10;99.90
40454;DHT22;26160;51.858;4.398;2023-12-22T14:20:00;12.10;99.90
40454;DHT22;26160;51.858;4.398;2023-12-22T14:22:27;12.20;99.90
40454;DHT22;26160;51.858;4.398;2023-12-22T14:24:53;12.20;99.90
40454;DHT22;26160;51.858;4.398;2023-12-22T14:27:23;12.20;99.90
40454;DHT22;26160;51.858;4.398;2023-12-22T14:29:49;12.20;99.90
40454;DHT22;26160;51.858;4.398;2023-12-22T14:32:15;12.20;99.90
40454;DHT22;26160;51.858;4.398;2023-12-22T14:34:47;12.20;99.90
40454;DHT22;26160;51.858;4.398;2023-12-22T14:37:14;12.20;99.90
40454;DHT22;26160;51.858;4.398;2023-12-22T14:39:43;12.20;99.90
40454;DHT22;26160;51.858;4.398;2023-12-22T14:42:09;12.30;99.90
40454;DHT22;26160;51.858;4.398;2023-12-22T14:44:36;12.30;99.90
40454;DHT22;26160;51.858;4.398;2023-12-22T14:47:02;12.20;99.90
40454;DHT22;26160;51.858;4.398;2023-12-22T14:49:28;12.20;99.90
40454;DHT22;26160;51.858;4.398;2023-12-22T14:51:54;12.20;99.90
40454;DHT22;26160;51.858;4.398;2023-12-22T14:54:22;12.20;99.90
40454;DHT22;26160;51.858;4.398;2023-12-22T14:56:48;12.20;99.90
40454;DHT22;26160;51.858;4.398;2023-12-22T14:59:15;12.20;99.90
40454;DHT22;26160;51.858;4.398;2023-12-22T15:01:41;12.30;99.90
40454;DHT22;26160;51.858;4.398;2023-12-22T15:04:08;12.20;99.90
40454;DHT22;26160;51.858;4.398;2023-12-22T15:06:38;12.20;99.90
40454;DHT22;26160;51.858;4.398;2023-12-22T15:09:05;12.20;99.90
40454;DHT22;26160;51.858;4.398;2023-12-22T15:11:31;12.20;99.90
40454;DHT22;26160;51.858;4.398;2023-12-22T15:13:57;12.10;99.90
40454;DHT22;26160;51.858;4.398;2023-12-22T15:16:23;12.10;99.90
40454;DHT22;26160;51.858;4.398;2023-12-22T15:18:50;12.10;99.90
40454;DHT22;26160;51.858;4.398;2023-12-22T15:21:20;12.10;99.90
40454;DHT22;26160;51.858;4.398;2023-12-22T15:23:47;12.00;99.90
40454;DHT22;26160;51.858;4.398;2023-12-22T15:26:25;12.00;99.90
40454;DHT22;26160;51.858;4.398;2023-12-22T15:28:52;12.00;99.90
40454;DHT22;26160;51.858;4.398;2023-12-22T15:31:18;12.00;99.90
40454;DHT22;26160;51.858;4.398;2023-12-22T15:33:44;11.90;99.90
40454;DHT22;26160;51.858;4.398;2023-12-22T15:36:10;12.00;99.90
40454;DHT22;26160;51.858;4.398;2023-12-22T15:38:36;12.00;99.90
40454;DHT22;26160;51.858;4.398;2023-12-22T15:41:02;12.00;99.90